Walnut Hill, Florida
Current Conditions -  °F | °C
As of 7:56 PM on Thursday 25 Dec 2014 (Local Time) from KNSE Reporting Station
Clear Clear  
Wind Chill: 38°   Ceiling: Unl
Heat Index: 38°   Visibility: 10mi
Dew Point: 36°   Wind: 0mph
Humidity: 93%   Direction: NA
Pressure: 30.25"   Gusts: NA
Location:  30.8697°N, 87.4663°W
Report Text: KNSE 260156Z AUTO 00000KT 10SM CLR 03/02 A3025 RMK AO2 RAB36E46 SLP232 P0000 T00330022 $
Loading
Personal Weather Stations






























Interactive Weather Map New forecast layout! Learn more

10-Day Weather Forecast

Advertisements
Track Severe Weather on mobile